Time;durP1;ratioP1;P1;durP2;ratioP2;P2;SDS_P1;SDS_P2;PMS_P1;PMS_P2;Temp;Humidity;BMP_temperature;BMP_pressure;BME280_temperature;BME280_humidity;BME280_pressure;Samples;Min_cycle;Max_cycle;Signal;HPM_P1;HPM_P2
2022/02/10 00:03:37;;;;;;;;;;;;;;;;;;;;;
2022/02/10 00:16:08;;;;;;;70.15;30.25;;;8.80;99.90;;;;;;5068914;28;20190;-66
2022/02/10 00:19:06;;;;;;;67.72;31.38;;;8.80;99.90;;;;;;5068699;28;20312;-66
2022/02/10 00:21:45;;;;;;;66.20;29.85;;;8.70;99.90;;;;;;5069947;28;20269;-67
2022/02/10 00:35:22;;;;;;;73.18;34.00;;;9.70;99.90;;;;;;5068769;28;20406;-66
2022/02/10 00:37:58;;;;;;;75.85;34.38;;;9.80;99.90;;;;;;5064031;28;20507;-66
2022/02/10 00:40:34;;;;;;;79.80;34.65;;;9.80;99.90;;;;;;5068053;28;20395;-66
2022/02/10 00:43:01;;;;;;;78.00;34.47;;;9.80;99.90;;;;;;5067268;28;20834;-66
2022/02/10 00:45:32;;;;;;;74.38;33.58;;;9.80;99.90;;;;;;5067683;28;20760;-66
2022/02/10 00:48:04;;;;;;;74.72;33.67;;;9.90;99.90;;;;;;5066270;28;20808;-66
2022/02/10 00:50:32;;;;;;;70.35;31.90;;;9.80;99.90;;;;;;5067895;28;20415;-66
2022/02/10 00:55:55;;;;;;;80.72;34.72;;;9.80;99.90;;;;;;5053744;28;20426;-66
2022/02/10 00:58:27;;;;;;;85.47;35.23;;;9.80;99.90;;;;;;5067618;28;20423;-66
2022/02/10 01:12:22;;;;;;;76.33;31.50;;;9.90;99.90;;;;;;5067677;28;20947;-66
2022/02/10 01:30:33;;;;;;;70.55;28.50;;;9.90;99.90;;;;;;5065863;28;20479;-66
2022/02/10 01:33:03;;;;;;;80.03;30.10;;;9.90;99.90;;;;;;5066112;28;20776;-66
2022/02/10 01:35:29;;;;;;;76.05;29.52;;;9.90;99.90;;;;;;5065810;28;20486;-65
2022/02/10 01:37:55;;;;;;;79.53;29.77;;;9.90;99.90;;;;;;5064439;28;21045;-66
2022/02/10 01:40:27;;;;;;;83.97;31.23;;;9.90;99.90;;;;;;5068004;28;20395;-66
2022/02/10 02:04:21;;;;;;;79.20;29.38;;;9.90;99.90;;;;;;5069003;28;20402;-66
2022/02/10 02:06:50;;;;;;;71.22;26.83;;;9.90;99.90;;;;;;5070305;28;20415;-65
2022/02/10 02:09:17;;;;;;;71.40;27.27;;;9.90;99.90;;;;;;5070452;28;20761;-65
2022/02/10 02:11:46;;;;;;;75.32;28.25;;;9.90;99.90;;;;;;5071295;28;20458;-65
2022/02/10 02:14:16;;;;;;;68.55;27.55;;;9.90;99.90;;;;;;5067559;28;20404;-66
2022/02/10 02:16:49;;;;;;;72.65;26.60;;;9.90;99.90;;;;;;5070979;28;20411;-65
2022/02/10 02:19:15;;;;;;;70.57;27.67;;;9.90;99.90;;;;;;5069140;28;20409;-65
2022/02/10 02:21:41;;;;;;;68.63;27.02;;;10.00;99.90;;;;;;5070566;28;20407;-66
2022/02/10 02:24:09;;;;;;;67.22;26.70;;;10.00;99.90;;;;;;5069841;28;20776;-66
2022/02/10 02:26:35;;;;;;;70.60;26.23;;;10.00;99.90;;;;;;5071326;28;20395;-66
2022/02/10 02:29:05;;;;;;;63.67;26.13;;;10.00;99.90;;;;;;5070379;28;20403;-67
2022/02/10 02:31:39;;;;;;;74.88;28.08;;;10.00;99.90;;;;;;5069914;28;20426;-66
2022/02/10 03:06:51;;;;;;;14.35;8.25;;;10.30;99.90;;;;;;5070619;28;20399;-67
2022/02/10 03:09:23;;;;;;;19.65;8.50;;;10.30;99.90;;;;;;5069374;28;20407;-67
2022/02/10 03:11:49;;;;;;;13.63;7.43;;;10.30;99.90;;;;;;5068290;28;20513;-67
2022/02/10 03:14:23;;;;;;;13.60;6.65;;;10.30;99.90;;;;;;5068882;28;20511;-66
2022/02/10 03:19:58;;;;;;;11.25;5.80;;;10.20;99.90;;;;;;5069163;28;20450;-66
2022/02/10 04:03:51;;;;;;;17.08;11.23;;;10.20;99.90;;;;;;5067987;28;20423;-67
2022/02/10 04:12:36;;;;;;;33.47;18.53;;;10.20;99.90;;;;;;5066828;28;20423;-66
2022/02/10 04:14:23;;;;;;;33.35;19.77;;;10.30;99.90;;;;;;5049709;28;20477;-66
2022/02/10 04:17:06;;;;;;;29.73;18.92;;;10.30;99.90;;;;;;5067375;28;20953;-66
2022/02/10 04:22:36;;;;;;;19.20;11.57;;;10.20;99.90;;;;;;5038485;28;20408;-66
2022/02/10 04:28:10;;;;;;;15.45;9.30;;;10.20;99.90;;;;;;5035614;28;20428;-66
2022/02/10 04:31:00;;;;;;;13.32;7.95;;;10.20;99.90;;;;;;5068474;28;20414;-66
2022/02/10 04:44:35;;;;;;;11.32;7.88;;;10.20;99.90;;;;;;5049568;28;20733;-65
2022/02/10 05:01:06;;;;;;;14.38;7.47;;;10.20;99.90;;;;;;5034077;28;20444;-66
2022/02/10 05:04:14;;;;;;;12.07;7.87;;;10.20;99.90;;;;;;5064740;28;20451;-66
2022/02/10 05:07:01;;;;;;;13.88;7.90;;;10.20;99.90;;;;;;5059875;28;20952;-66
2022/02/10 05:22:19;;;;;;;12.48;6.78;;;10.10;99.90;;;;;;5064722;28;20399;-66
2022/02/10 05:45:49;;;;;;;13.80;7.65;;;10.10;99.90;;;;;;5065826;28;20802;-66
2022/02/10 05:56:08;;;;;;;13.48;8.43;;;10.10;99.90;;;;;;5064048;28;20499;-66
2022/02/10 06:41:36;;;;;;;18.30;7.60;;;9.80;99.90;;;;;;5068125;28;20466;-67
2022/02/10 06:50:55;;;;;;;21.00;8.85;;;9.80;99.90;;;;;;5066276;28;20415;-67
2022/02/10 06:53:26;;;;;;;23.00;11.10;;;9.80;99.90;;;;;;5066338;28;20923;-67
2022/02/10 07:04:31;;;;;;;21.55;8.55;;;9.80;99.90;;;;;;5066833;28;20408;-65
2022/02/10 07:48:27;;;;;;;17.57;5.53;;;9.70;99.90;;;;;;5066664;28;20415;-64
2022/02/10 07:56:40;;;;;;;15.57;4.70;;;9.70;99.90;;;;;;5081132;28;20428;-66
2022/02/10 08:50:56;;;;;;;12.63;3.50;;;9.90;99.90;;;;;;5067438;28;20788;-65
2022/02/10 09:01:33;;;;;;;17.20;4.82;;;10.00;99.90;;;;;;5068113;28;20549;-65
2022/02/10 09:12:16;;;;;;;13.48;3.72;;;10.40;99.90;;;;;;5082032;28;20415;-65
2022/02/10 09:48:04;;;;;;;12.32;3.28;;;10.50;99.90;;;;;;5066179;28;20429;-65
2022/02/10 09:54:17;;;;;;;11.63;2.90;;;10.60;99.90;;;;;;5066511;28;20490;-65
2022/02/10 09:58:58;;;;;;;13.43;2.83;;;10.50;99.90;;;;;;5067022;28;20490;-64
2022/02/10 10:01:32;;;;;;;13.07;2.40;;;10.50;99.90;;;;;;5066944;28;20407;-65
2022/02/10 10:04:11;;;;;;;11.35;2.40;;;10.60;99.90;;;;;;5066986;28;20462;-65
2022/02/10 10:07:02;;;;;;;15.02;2.38;;;10.60;99.90;;;;;;5067357;28;20419;-65
2022/02/10 10:09:39;;;;;;;10.50;2.27;;;10.70;99.90;;;;;;5066867;28;20412;-65
2022/02/10 10:12:53;;;;;;;14.07;2.22;;;11.00;99.90;;;;;;5068171;28;20712;-65
2022/02/10 10:15:25;;;;;;;11.17;2.20;;;11.30;99.90;;;;;;5071057;28;20416;-65
2022/02/10 10:18:36;;;;;;;13.45;2.40;;;11.60;99.70;;;;;;5070752;28;20590;-65
2022/02/10 10:21:28;;;;;;;13.20;2.30;;;11.90;98.70;;;;;;5070880;28;20492;-65
2022/02/10 10:56:48;;;;;;;11.15;2.20;;;15.80;76.80;;;;;;5052821;28;20888;-65
2022/02/10 11:06:15;;;;;;;16.50;2.63;;;14.70;83.20;;;;;;5068788;28;20891;-65
2022/02/10 11:38:29;;;;;;;16.75;2.65;;;14.00;85.00;;;;;;5083014;28;20411;-66
2022/02/10 11:43:53;;;;;;;14.00;2.55;;;14.10;87.90;;;;;;5068297;28;20408;-65
2022/02/10 12:35:35;;;;;;;14.40;3.30;;;13.20;90.00;;;;;;5064216;28;20760;-65
2022/02/10 12:37:49;;;;;;;17.95;3.40;;;13.10;90.70;;;;;;5066094;28;20419;-64
2022/02/10 12:42:02;;;;;;;15.70;2.80;;;12.90;89.90;;;;;;5067846;28;20564;-66
2022/02/10 14:11:11;;;;;;;8.50;2.00;;;12.10;81.70;;;;;;5064399;28;20422;-65
2022/02/10 14:25:52;;;;;;;13.23;2.40;;;11.90;83.90;;;;;;5071245;28;20399;-67
2022/02/10 14:28:18;;;;;;;14.93;2.20;;;11.80;84.90;;;;;;5069255;28;20414;-66
2022/02/10 14:30:44;;;;;;;8.77;2.00;;;11.80;84.30;;;;;;5069598;28;20409;-67
2022/02/10 14:33:10;;;;;;;14.53;2.60;;;11.80;84.00;;;;;;5051682;28;20806;-67
2022/02/10 14:35:54;;;;;;;12.02;2.05;;;11.70;83.90;;;;;;5071445;28;20457;-67
2022/02/10 15:56:49;;;;;;;13.63;1.95;;;10.50;85.10;;;;;;5067209;28;20494;-66
2022/02/10 16:14:00;;;;;;;14.05;2.58;;;10.30;85.70;;;;;;5064769;28;20535;-66
2022/02/10 16:18:42;;;;;;;12.23;2.40;;;10.30;86.80;;;;;;5065198;28;20495;-68
2022/02/10 16:21:08;;;;;;;12.50;2.10;;;10.30;86.90;;;;;;5065892;28;20468;-66
2022/02/10 16:23:35;;;;;;;14.38;2.40;;;10.30;87.60;;;;;;5066618;28;20494;-68
2022/02/10 16:26:14;;;;;;;16.20;2.13;;;10.30;86.20;;;;;;5067503;28;20426;-66
2022/02/10 16:28:41;;;;;;;11.55;2.17;;;10.20;85.90;;;;;;5065272;28;20415;-66
2022/02/10 16:31:14;;;;;;;17.48;2.33;;;10.20;86.30;;;;;;5067563;28;20491;-66
2022/02/10 16:33:43;;;;;;;13.57;2.40;;;10.10;86.10;;;;;;5064931;28;20528;-66
2022/02/10 16:36:16;;;;;;;14.07;2.60;;;10.00;86.80;;;;;;5048231;28;20439;-68
2022/02/10 16:38:44;;;;;;;14.02;2.50;;;10.00;88.00;;;;;;5065690;28;20514;-68
2022/02/10 16:41:11;;;;;;;15.05;2.20;;;10.00;88.30;;;;;;5067320;28;20411;-68
2022/02/10 16:43:37;;;;;;;16.65;2.40;;;10.00;88.30;;;;;;5064167;28;20887;-69
2022/02/10 16:46:02;;;;;;;11.57;1.98;;;9.90;87.90;;;;;;5014680;28;20188;-69
2022/02/10 16:48:33;;;;;;;11.75;2.00;;;9.50;89.00;;;;;;5066110;28;20189;-68
2022/02/10 16:51:00;;;;;;;10.68;1.92;;;9.20;90.00;;;;;;5049356;28;20179;-68
2022/02/10 16:53:27;;;;;;;9.68;1.92;;;9.00;90.30;;;;;;5067018;28;20214;-68
2022/02/10 16:56:10;;;;;;;8.13;2.00;;;8.80;90.60;;;;;;5066112;28;20265;-67
2022/02/10 16:59:09;;;;;;;13.52;2.25;;;8.70;90.80;;;;;;5061706;28;20199;-66
2022/02/10 17:25:35;;;;;;;15.98;2.72;;;9.40;90.70;;;;;;5064224;28;20492;-67
2022/02/10 17:28:03;;;;;;;15.23;2.95;;;9.40;90.70;;;;;;5064482;28;20446;-66
2022/02/10 17:33:13;;;;;;;16.63;2.67;;;9.40;90.40;;;;;;5063653;28;20888;-66
2022/02/10 17:35:54;;;;;;;17.60;3.03;;;9.40;90.70;;;;;;5064670;28;20407;-67
2022/02/10 17:46:42;;;;;;;15.68;3.10;;;9.30;90.50;;;;;;5064187;28;20408;-67
2022/02/10 17:52:05;;;;;;;17.67;3.20;;;9.20;90.70;;;;;;5062957;28;20485;-68
2022/02/10 17:54:31;;;;;;;13.03;2.97;;;9.30;91.10;;;;;;5060655;28;20438;-67
2022/02/10 17:56:57;;;;;;;12.85;3.15;;;9.20;91.00;;;;;;5062224;28;20446;-67
2022/02/10 17:59:23;;;;;;;16.98;3.05;;;9.20;91.00;;;;;;5063370;28;20416;-69
2022/02/10 18:01:50;;;;;;;14.07;3.20;;;9.20;91.00;;;;;;5062898;28;20423;-68
2022/02/10 18:04:18;;;;;;;17.50;3.45;;;9.20;91.30;;;;;;5064356;28;20403;-67
2022/02/10 18:06:47;;;;;;;18.02;3.72;;;9.20;91.10;;;;;;5063936;28;20408;-67
2022/02/10 18:09:33;;;;;;;15.52;3.40;;;9.20;91.00;;;;;;5064469;28;20756;-67
2022/02/10 18:14:33;;;;;;;14.90;3.50;;;9.10;91.30;;;;;;5063134;28;20415;-67
2022/02/10 18:19:56;;;;;;;12.57;3.43;;;9.10;91.20;;;;;;5064322;28;20413;-67
2022/02/10 18:22:35;;;;;;;13.80;3.00;;;9.10;91.60;;;;;;5063649;28;20407;-68
2022/02/10 18:54:29;;;;;;;13.07;3.50;;;9.00;91.90;;;;;;5064398;28;20492;-68
2022/02/10 19:03:57;;;;;;;11.10;2.60;;;8.80;91.80;;;;;;5063646;28;20416;-69
2022/02/10 19:08:18;;;;;;;11.05;4.03;;;8.80;91.90;;;;;;5065948;28;20415;-68
2022/02/10 19:10:46;;;;;;;13.70;3.17;;;8.80;91.90;;;;;;5066150;28;20414;-68
2022/02/10 19:13:16;;;;;;;13.15;3.20;;;8.70;92.00;;;;;;5045149;28;20423;-67
2022/02/10 19:15:41;;;;;;;12.98;3.10;;;8.70;92.20;;;;;;5067555;28;20514;-69
2022/02/10 19:18:09;;;;;;;12.07;3.00;;;8.70;92.30;;;;;;5064996;28;20495;-68
2022/02/10 19:20:37;;;;;;;14.32;2.85;;;8.70;92.40;;;;;;5065285;28;20407;-68
2022/02/10 19:23:07;;;;;;;11.65;2.80;;;8.70;92.50;;;;;;5046905;28;20747;-68
2022/02/10 19:25:36;;;;;;;16.08;3.15;;;8.80;92.60;;;;;;5065132;28;20473;-67
2022/02/10 19:28:02;;;;;;;13.50;2.80;;;8.80;92.90;;;;;;5063121;28;20479;-68
2022/02/10 19:30:30;;;;;;;13.73;2.72;;;8.80;92.80;;;;;;5065584;28;20413;-68
2022/02/10 19:32:59;;;;;;;19.73;5.60;;;8.80;92.80;;;;;;5064855;28;20506;-68
2022/02/10 19:35:27;;;;;;;14.48;5.40;;;8.70;92.70;;;;;;5065183;28;20412;-67
2022/02/10 19:37:58;;;;;;;14.05;3.40;;;8.70;93.00;;;;;;5065003;28;20934;-67
2022/02/10 19:40:29;;;;;;;13.43;3.50;;;8.70;93.20;;;;;;5067243;28;20775;-69
2022/02/10 19:42:56;;;;;;;13.88;3.10;;;8.70;92.40;;;;;;5065422;28;20973;-68
2022/02/10 19:45:24;;;;;;;16.10;3.25;;;8.70;92.50;;;;;;5065853;28;20506;-68
2022/02/10 19:47:50;;;;;;;14.40;2.95;;;8.70;92.70;;;;;;5065302;28;20966;-67
2022/02/10 19:50:22;;;;;;;14.90;2.95;;;8.70;92.70;;;;;;5066624;28;20498;-67
2022/02/10 19:52:50;;;;;;;11.20;2.80;;;8.70;92.50;;;;;;5062722;28;20494;-68
2022/02/10 19:55:22;;;;;;;18.73;3.08;;;8.60;92.40;;;;;;5064299;28;20505;-68
2022/02/10 19:57:53;;;;;;;14.43;3.10;;;8.60;92.50;;;;;;5064593;28;20447;-66
2022/02/10 20:00:24;;;;;;;15.53;2.83;;;8.70;92.20;;;;;;5077334;28;20410;-67
2022/02/10 20:02:50;;;;;;;11.18;3.03;;;8.70;92.10;;;;;;5046083;28;20498;-68
2022/02/10 20:05:21;;;;;;;14.45;3.38;;;8.70;92.20;;;;;;5066450;28;20542;-68
2022/02/10 20:07:51;;;;;;;12.48;2.95;;;8.70;91.90;;;;;;5059548;28;20426;-69
2022/02/10 20:10:17;;;;;;;16.73;3.20;;;8.70;91.40;;;;;;5048244;28;20419;-68
2022/02/10 20:12:43;;;;;;;15.95;3.20;;;8.70;91.20;;;;;;5062951;28;20431;-69
2022/02/10 20:15:10;;;;;;;12.00;2.60;;;8.70;91.30;;;;;;5030523;28;20404;-68
2022/02/10 20:17:37;;;;;;;11.93;2.70;;;8.70;91.10;;;;;;5063562;28;20970;-69
2022/02/10 20:20:05;;;;;;;14.65;3.10;;;8.70;91.10;;;;;;5080547;28;20446;-70
2022/02/10 20:22:35;;;;;;;12.30;2.83;;;8.70;91.30;;;;;;5064727;28;20472;-69
2022/02/10 20:25:02;;;;;;;13.20;2.70;;;8.60;91.10;;;;;;5046952;28;20419;-70
2022/02/10 20:27:28;;;;;;;14.23;3.05;;;8.60;91.10;;;;;;5063565;28;20411;-70
2022/02/10 20:29:54;;;;;;;18.27;3.27;;;8.60;90.80;;;;;;5063039;28;20414;-70
2022/02/10 20:32:19;;;;;;;11.18;2.88;;;8.60;90.90;;;;;;5066702;28;20483;-69
2022/02/10 20:34:45;;;;;;;16.55;2.95;;;8.60;91.20;;;;;;5065116;28;20876;-67
2022/02/10 20:37:12;;;;;;;11.17;2.53;;;8.60;91.70;;;;;;5047444;28;20420;-68
2022/02/10 20:39:38;;;;;;;15.32;2.75;;;8.50;91.40;;;;;;5050501;28;20527;-67
2022/02/10 20:42:08;;;;;;;11.73;2.90;;;8.50;91.50;;;;;;5065996;28;20422;-68
2022/02/10 20:44:35;;;;;;;14.67;2.83;;;8.50;91.60;;;;;;5066495;28;20502;-68
2022/02/10 20:47:01;;;;;;;14.45;2.50;;;8.40;91.30;;;;;;5067875;28;20477;-68
2022/02/10 20:49:27;;;;;;;18.75;3.20;;;8.40;91.30;;;;;;5067530;28;20419;-68
2022/02/10 20:51:55;;;;;;;16.75;2.67;;;8.30;91.40;;;;;;5050262;28;20829;-68
2022/02/10 20:54:22;;;;;;;15.85;3.03;;;8.30;91.10;;;;;;5067548;28;20418;-68
2022/02/10 20:56:47;;;;;;;15.77;2.80;;;8.30;90.90;;;;;;5066800;28;20411;-70
2022/02/10 20:59:26;;;;;;;13.93;2.63;;;8.30;90.90;;;;;;5065325;28;20448;-68
2022/02/10 21:01:59;;;;;;;15.03;2.80;;;8.20;90.90;;;;;;5067698;28;20435;-69
2022/02/10 21:04:30;;;;;;;12.20;2.53;;;8.20;90.90;;;;;;5045733;28;20418;-69
2022/02/10 21:07:02;;;;;;;14.50;2.47;;;8.20;91.20;;;;;;5063387;28;20420;-68
2022/02/10 21:10:12;;;;;;;15.48;2.90;;;8.20;91.40;;;;;;5066962;28;20446;-69
2022/02/10 21:12:17;;;;;;;16.98;2.60;;;8.20;91.60;;;;;;5060226;28;20415;-69
2022/02/10 21:14:43;;;;;;;18.85;2.90;;;8.10;92.00;;;;;;5066724;28;20819;-69
2022/02/10 21:17:11;;;;;;;14.05;2.67;;;8.10;92.00;;;;;;5065412;28;20413;-69
2022/02/10 21:19:39;;;;;;;15.77;2.90;;;8.10;92.40;;;;;;5067879;28;20490;-69
2022/02/10 21:22:12;;;;;;;12.02;2.72;;;8.10;92.60;;;;;;5066260;28;20499;-70
2022/02/10 21:24:43;;;;;;;17.23;2.83;;;8.10;92.80;;;;;;5066401;28;20483;-70
2022/02/10 21:27:35;;;;;;;14.70;2.45;;;8.10;93.00;;;;;;5066422;28;20425;-70
2022/02/10 21:30:04;;;;;;;13.27;2.40;;;8.10;92.90;;;;;;5067638;28;20457;-69
2022/02/10 21:32:33;;;;;;;12.88;2.78;;;8.00;93.10;;;;;;5066156;28;20932;-69
2022/02/10 21:35:13;;;;;;;15.63;2.63;;;8.00;93.00;;;;;;5067596;28;20410;-69
2022/02/10 21:38:14;;;;;;;18.92;2.80;;;8.00;92.90;;;;;;5064412;28;20417;-69
2022/02/10 21:47:20;;;;;;;14.80;2.45;;;8.00;92.60;;;;;;5050459;28;20423;-68
2022/02/10 22:05:06;;;;;;;11.80;2.57;;;7.90;91.80;;;;;;5067277;28;20407;-69
2022/02/10 22:10:01;;;;;;;16.75;2.50;;;7.90;92.10;;;;;;5069320;28;20419;-69
2022/02/10 22:23:17;;;;;;;13.80;2.72;;;7.90;92.40;;;;;;5070051;28;20904;-70
2022/02/10 22:25:44;;;;;;;16.33;2.92;;;7.90;92.50;;;;;;5069644;28;20476;-70
2022/02/10 22:28:37;;;;;;;15.40;3.00;;;7.90;92.50;;;;;;5069123;28;20411;-70
2022/02/10 22:33:53;;;;;;;20.95;2.88;;;7.90;92.90;;;;;;5047768;28;20892;-70
2022/02/10 22:36:21;;;;;;;17.75;2.80;;;7.90;92.90;;;;;;5070038;28;20412;-70
2022/02/10 22:38:49;;;;;;;18.45;3.10;;;7.90;92.90;;;;;;5050942;28;20445;-71
2022/02/10 22:41:15;;;;;;;23.33;3.50;;;7.90;92.80;;;;;;5069311;28;20899;-70
2022/02/10 22:43:46;;;;;;;15.43;2.88;;;7.90;92.80;;;;;;5051188;28;20453;-69
2022/02/10 22:46:12;;;;;;;13.52;2.67;;;7.80;92.50;;;;;;5053652;28;20447;-70
2022/02/10 22:48:44;;;;;;;16.77;3.00;;;7.90;92.60;;;;;;5068227;28;20892;-70
2022/02/10 22:51:12;;;;;;;20.90;3.37;;;7.80;92.70;;;;;;5069649;28;20411;-70
2022/02/10 22:53:37;;;;;;;17.27;2.92;;;7.90;93.00;;;;;;5051346;28;21054;-68
2022/02/10 22:56:10;;;;;;;19.07;2.90;;;7.90;93.10;;;;;;5070254;28;20424;-69
2022/02/10 22:58:40;;;;;;;19.42;3.10;;;7.90;93.10;;;;;;5068146;28;20419;-70
2022/02/10 23:01:08;;;;;;;15.63;2.92;;;7.90;93.30;;;;;;5070637;28;20411;-70
2022/02/10 23:03:36;;;;;;;20.95;3.58;;;7.90;93.00;;;;;;5068607;28;20411;-70
2022/02/10 23:06:03;;;;;;;20.13;3.63;;;8.00;93.00;;;;;;5068706;28;20452;-69
2022/02/10 23:08:30;;;;;;;17.10;3.07;;;8.00;93.10;;;;;;5069198;28;20411;-70
2022/02/10 23:10:55;;;;;;;18.77;3.10;;;8.10;92.90;;;;;;5067154;28;20502;-70
2022/02/10 23:13:27;;;;;;;23.63;3.13;;;8.10;92.80;;;;;;5068302;28;20447;-69
2022/02/10 23:15:53;;;;;;;19.05;2.92;;;8.10;92.90;;;;;;5067696;28;20407;-69
2022/02/10 23:18:23;;;;;;;21.30;3.05;;;8.20;93.00;;;;;;5067738;28;20411;-71
2022/02/10 23:20:51;;;;;;;18.80;3.10;;;8.20;93.00;;;;;;5069938;28;20420;-70
2022/02/10 23:23:18;;;;;;;21.08;3.08;;;8.20;93.10;;;;;;5068088;28;20411;-71
2022/02/10 23:25:45;;;;;;;23.38;3.45;;;8.30;93.30;;;;;;5068049;28;20426;-70
2022/02/10 23:28:17;;;;;;;22.95;3.60;;;8.30;93.20;;;;;;5050446;28;20919;-69
2022/02/10 23:30:47;;;;;;;18.42;3.10;;;8.30;93.20;;;;;;5069324;28;20514;-69
2022/02/10 23:38:30;;;;;;;16.10;3.33;;;8.40;93.10;;;;;;5068467;28;20494;-69
2022/02/10 23:43:27;;;;;;;18.90;3.00;;;8.40;93.00;;;;;;5068405;28;20411;-70
2022/02/10 23:45:52;;;;;;;19.05;3.15;;;8.40;93.10;;;;;;5068385;28;20805;-69
2022/02/10 23:48:18;;;;;;;19.80;3.40;;;8.40;93.20;;;;;;5068617;28;20580;-69
2022/02/10 23:50:44;;;;;;;20.67;4.07;;;8.30;93.30;;;;;;5068331;28;20953;-69
2022/02/10 23:53:09;;;;;;;15.50;3.30;;;8.40;93.20;;;;;;5066691;28;20427;-69
2022/02/10 23:55:39;;;;;;;15.93;3.20;;;8.30;93.30;;;;;;5068433;28;20480;-68
2022/02/10 23:58:37;;;;;;;20.23;3.70;;;8.30;93.40;;;;;;5067507;28;20412;-70
